sensor_id;sensor_type;location;lat;lon;timestamp;P1;durP1;ratioP1;P2;durP2;ratioP2
33858;SDS011;20156;47.486;12.074;2023-05-07T00:00:52;5.22;;;3.30;;
33858;SDS011;20156;47.486;12.074;2023-05-07T00:03:17;3.28;;;2.70;;
33858;SDS011;20156;47.486;12.074;2023-05-07T00:05:44;4.78;;;2.45;;
33858;SDS011;20156;47.486;12.074;2023-05-07T00:08:09;2.47;;;2.28;;
33858;SDS011;20156;47.486;12.074;2023-05-07T00:10:35;4.20;;;3.05;;
33858;SDS011;20156;47.486;12.074;2023-05-07T00:13:00;4.15;;;2.53;;
33858;SDS011;20156;47.486;12.074;2023-05-07T00:15:26;5.47;;;2.83;;
33858;SDS011;20156;47.486;12.074;2023-05-07T00:17:51;4.32;;;2.92;;
33858;SDS011;20156;47.486;12.074;2023-05-07T00:20:16;3.53;;;2.90;;
33858;SDS011;20156;47.486;12.074;2023-05-07T00:22:42;2.95;;;2.75;;
33858;SDS011;20156;47.486;12.074;2023-05-07T00:25:07;2.92;;;2.65;;
33858;SDS011;20156;47.486;12.074;2023-05-07T00:27:33;3.72;;;2.72;;
33858;SDS011;20156;47.486;12.074;2023-05-07T00:29:58;3.50;;;3.00;;
33858;SDS011;20156;47.486;12.074;2023-05-07T00:32:24;3.00;;;2.70;;
33858;SDS011;20156;47.486;12.074;2023-05-07T00:34:49;2.70;;;2.50;;
33858;SDS011;20156;47.486;12.074;2023-05-07T00:37:15;4.15;;;2.75;;
33858;SDS011;20156;47.486;12.074;2023-05-07T00:39:41;4.80;;;2.42;;
33858;SDS011;20156;47.486;12.074;2023-05-07T00:42:06;3.42;;;2.90;;
33858;SDS011;20156;47.486;12.074;2023-05-07T00:44:33;3.45;;;2.70;;
33858;SDS011;20156;47.486;12.074;2023-05-07T00:46:58;3.25;;;2.35;;
33858;SDS011;20156;47.486;12.074;2023-05-07T00:49:30;2.85;;;2.58;;
33858;SDS011;20156;47.486;12.074;2023-05-07T00:52:03;2.60;;;2.40;;
33858;SDS011;20156;47.486;12.074;2023-05-07T00:54:30;3.03;;;2.13;;
33858;SDS011;20156;47.486;12.074;2023-05-07T00:56:56;2.97;;;2.22;;
33858;SDS011;20156;47.486;12.074;2023-05-07T00:59:21;3.47;;;2.10;;
33858;SDS011;20156;47.486;12.074;2023-05-07T01:01:47;6.53;;;2.42;;
33858;SDS011;20156;47.486;12.074;2023-05-07T01:04:12;3.58;;;2.33;;
33858;SDS011;20156;47.486;12.074;2023-05-07T01:06:37;2.85;;;2.53;;
33858;SDS011;20156;47.486;12.074;2023-05-07T01:09:04;3.72;;;2.47;;
33858;SDS011;20156;47.486;12.074;2023-05-07T01:11:30;2.47;;;2.00;;
33858;SDS011;20156;47.486;12.074;2023-05-07T01:13:55;3.58;;;2.00;;
33858;SDS011;20156;47.486;12.074;2023-05-07T01:16:23;3.30;;;1.95;;
33858;SDS011;20156;47.486;12.074;2023-05-07T01:18:49;1.90;;;1.80;;
33858;SDS011;20156;47.486;12.074;2023-05-07T01:21:15;3.20;;;2.28;;
33858;SDS011;20156;47.486;12.074;2023-05-07T01:23:42;5.90;;;2.60;;
33858;SDS011;20156;47.486;12.074;2023-05-07T01:26:09;2.63;;;2.42;;
33858;SDS011;20156;47.486;12.074;2023-05-07T01:28:34;2.40;;;2.20;;
33858;SDS011;20156;47.486;12.074;2023-05-07T01:31:03;2.42;;;2.22;;
33858;SDS011;20156;47.486;12.074;2023-05-07T01:33:31;2.50;;;1.88;;
33858;SDS011;20156;47.486;12.074;2023-05-07T01:36:00;2.53;;;2.05;;
33858;SDS011;20156;47.486;12.074;2023-05-07T01:38:28;3.05;;;2.22;;
33858;SDS011;20156;47.486;12.074;2023-05-07T01:40:55;3.50;;;3.05;;
33858;SDS011;20156;47.486;12.074;2023-05-07T01:43:20;3.25;;;2.22;;
33858;SDS011;20156;47.486;12.074;2023-05-07T01:45:46;3.65;;;2.42;;
33858;SDS011;20156;47.486;12.074;2023-05-07T01:48:14;2.25;;;2.10;;
33858;SDS011;20156;47.486;12.074;2023-05-07T01:50:40;2.53;;;2.17;;
33858;SDS011;20156;47.486;12.074;2023-05-07T01:53:07;2.42;;;2.22;;
33858;SDS011;20156;47.486;12.074;2023-05-07T01:55:33;3.50;;;2.10;;
33858;SDS011;20156;47.486;12.074;2023-05-07T01:57:58;6.53;;;2.72;;
33858;SDS011;20156;47.486;12.074;2023-05-07T02:00:24;2.47;;;2.28;;
33858;SDS011;20156;47.486;12.074;2023-05-07T02:02:50;2.60;;;2.40;;
33858;SDS011;20156;47.486;12.074;2023-05-07T02:05:15;2.30;;;2.10;;
33858;SDS011;20156;47.486;12.074;2023-05-07T02:07:40;2.05;;;1.90;;
33858;SDS011;20156;47.486;12.074;2023-05-07T02:10:06;2.60;;;2.22;;
33858;SDS011;20156;47.486;12.074;2023-05-07T02:12:32;2.35;;;2.15;;
33858;SDS011;20156;47.486;12.074;2023-05-07T02:14:57;2.90;;;2.40;;
33858;SDS011;20156;47.486;12.074;2023-05-07T02:17:22;2.30;;;2.10;;
33858;SDS011;20156;47.486;12.074;2023-05-07T02:19:48;4.22;;;2.28;;
33858;SDS011;20156;47.486;12.074;2023-05-07T02:22:13;2.50;;;2.30;;
33858;SDS011;20156;47.486;12.074;2023-05-07T02:24:38;2.30;;;2.10;;
33858;SDS011;20156;47.486;12.074;2023-05-07T02:27:04;2.50;;;2.30;;
33858;SDS011;20156;47.486;12.074;2023-05-07T02:29:29;2.17;;;2.05;;
33858;SDS011;20156;47.486;12.074;2023-05-07T02:31:55;2.40;;;2.20;;
33858;SDS011;20156;47.486;12.074;2023-05-07T02:34:20;4.78;;;2.58;;
33858;SDS011;20156;47.486;12.074;2023-05-07T02:36:46;5.75;;;2.45;;
33858;SDS011;20156;47.486;12.074;2023-05-07T02:39:11;6.13;;;3.00;;
33858;SDS011;20156;47.486;12.074;2023-05-07T02:41:37;3.80;;;3.10;;
33858;SDS011;20156;47.486;12.074;2023-05-07T02:44:03;4.40;;;2.60;;
33858;SDS011;20156;47.486;12.074;2023-05-07T02:46:28;4.47;;;3.28;;
33858;SDS011;20156;47.486;12.074;2023-05-07T02:48:54;3.50;;;3.17;;
33858;SDS011;20156;47.486;12.074;2023-05-07T02:51:20;4.45;;;3.17;;
33858;SDS011;20156;47.486;12.074;2023-05-07T02:53:47;2.65;;;2.42;;
33858;SDS011;20156;47.486;12.074;2023-05-07T02:56:12;2.83;;;2.55;;
33858;SDS011;20156;47.486;12.074;2023-05-07T02:58:37;8.02;;;3.42;;
33858;SDS011;20156;47.486;12.074;2023-05-07T03:01:07;3.40;;;3.10;;
33858;SDS011;20156;47.486;12.074;2023-05-07T03:03:33;3.67;;;3.28;;
33858;SDS011;20156;47.486;12.074;2023-05-07T03:05:59;2.97;;;2.70;;
33858;SDS011;20156;47.486;12.074;2023-05-07T03:08:25;3.90;;;3.20;;
33858;SDS011;20156;47.486;12.074;2023-05-07T03:10:50;4.43;;;3.28;;
33858;SDS011;20156;47.486;12.074;2023-05-07T03:13:16;3.78;;;3.33;;
33858;SDS011;20156;47.486;12.074;2023-05-07T03:15:41;3.88;;;2.90;;
33858;SDS011;20156;47.486;12.074;2023-05-07T03:18:06;4.00;;;2.38;;
33858;SDS011;20156;47.486;12.074;2023-05-07T03:20:32;4.00;;;2.67;;
33858;SDS011;20156;47.486;12.074;2023-05-07T03:22:57;3.15;;;2.67;;
33858;SDS011;20156;47.486;12.074;2023-05-07T03:25:23;5.20;;;2.63;;
33858;SDS011;20156;47.486;12.074;2023-05-07T03:27:48;4.18;;;2.80;;
33858;SDS011;20156;47.486;12.074;2023-05-07T03:30:14;3.13;;;2.83;;
33858;SDS011;20156;47.486;12.074;2023-05-07T03:32:39;3.42;;;2.72;;
33858;SDS011;20156;47.486;12.074;2023-05-07T03:35:05;3.10;;;2.85;;
33858;SDS011;20156;47.486;12.074;2023-05-07T03:37:30;3.85;;;3.10;;
33858;SDS011;20156;47.486;12.074;2023-05-07T03:39:56;6.60;;;3.30;;
33858;SDS011;20156;47.486;12.074;2023-05-07T03:42:21;5.40;;;4.00;;
33858;SDS011;20156;47.486;12.074;2023-05-07T03:44:47;6.97;;;3.95;;
33858;SDS011;20156;47.486;12.074;2023-05-07T03:47:12;5.75;;;4.45;;
33858;SDS011;20156;47.486;12.074;2023-05-07T03:49:38;4.85;;;3.83;;
33858;SDS011;20156;47.486;12.074;2023-05-07T03:52:04;5.97;;;4.25;;
33858;SDS011;20156;47.486;12.074;2023-05-07T03:54:30;4.78;;;4.00;;
33858;SDS011;20156;47.486;12.074;2023-05-07T03:56:55;6.03;;;5.07;;
33858;SDS011;20156;47.486;12.074;2023-05-07T03:59:21;6.75;;;5.30;;
33858;SDS011;20156;47.486;12.074;2023-05-07T04:01:47;4.53;;;4.13;;
33858;SDS011;20156;47.486;12.074;2023-05-07T04:04:13;4.88;;;4.05;;
33858;SDS011;20156;47.486;12.074;2023-05-07T04:06:38;5.55;;;4.25;;
33858;SDS011;20156;47.486;12.074;2023-05-07T04:09:04;4.65;;;3.92;;
33858;SDS011;20156;47.486;12.074;2023-05-07T04:11:29;4.70;;;3.65;;
33858;SDS011;20156;47.486;12.074;2023-05-07T04:13:55;3.67;;;3.30;;
33858;SDS011;20156;47.486;12.074;2023-05-07T04:16:20;3.42;;;3.13;;
33858;SDS011;20156;47.486;12.074;2023-05-07T04:18:45;3.55;;;3.17;;
33858;SDS011;20156;47.486;12.074;2023-05-07T04:21:15;3.92;;;3.58;;
33858;SDS011;20156;47.486;12.074;2023-05-07T04:23:41;4.72;;;3.90;;
33858;SDS011;20156;47.486;12.074;2023-05-07T04:26:06;4.95;;;4.10;;
33858;SDS011;20156;47.486;12.074;2023-05-07T04:28:32;6.00;;;3.78;;
33858;SDS011;20156;47.486;12.074;2023-05-07T04:30:57;4.10;;;3.80;;
33858;SDS011;20156;47.486;12.074;2023-05-07T04:33:22;3.92;;;3.53;;
33858;SDS011;20156;47.486;12.074;2023-05-07T04:35:48;4.07;;;3.67;;
33858;SDS011;20156;47.486;12.074;2023-05-07T04:38:13;4.25;;;3.88;;
33858;SDS011;20156;47.486;12.074;2023-05-07T04:40:39;3.20;;;2.90;;
33858;SDS011;20156;47.486;12.074;2023-05-07T04:43:06;4.47;;;3.33;;
33858;SDS011;20156;47.486;12.074;2023-05-07T04:45:32;3.90;;;3.55;;
33858;SDS011;20156;47.486;12.074;2023-05-07T04:47:57;3.63;;;3.33;;
33858;SDS011;20156;47.486;12.074;2023-05-07T04:50:23;3.72;;;2.70;;
33858;SDS011;20156;47.486;12.074;2023-05-07T04:52:49;4.60;;;3.17;;
33858;SDS011;20156;47.486;12.074;2023-05-07T04:55:15;3.53;;;3.20;;
33858;SDS011;20156;47.486;12.074;2023-05-07T04:57:40;4.60;;;3.38;;
33858;SDS011;20156;47.486;12.074;2023-05-07T05:00:06;4.32;;;2.92;;
33858;SDS011;20156;47.486;12.074;2023-05-07T05:02:33;5.38;;;3.15;;
33858;SDS011;20156;47.486;12.074;2023-05-07T05:04:59;4.60;;;3.15;;
33858;SDS011;20156;47.486;12.074;2023-05-07T05:07:26;3.08;;;2.78;;
33858;SDS011;20156;47.486;12.074;2023-05-07T05:09:51;3.42;;;3.13;;
33858;SDS011;20156;47.486;12.074;2023-05-07T05:12:17;3.33;;;3.03;;
33858;SDS011;20156;47.486;12.074;2023-05-07T05:14:42;3.70;;;3.33;;
33858;SDS011;20156;47.486;12.074;2023-05-07T05:17:07;3.25;;;2.70;;
33858;SDS011;20156;47.486;12.074;2023-05-07T05:19:33;3.08;;;2.75;;
33858;SDS011;20156;47.486;12.074;2023-05-07T05:21:58;4.60;;;3.08;;
33858;SDS011;20156;47.486;12.074;2023-05-07T05:24:25;5.25;;;3.25;;
33858;SDS011;20156;47.486;12.074;2023-05-07T05:26:52;3.72;;;3.38;;
33858;SDS011;20156;47.486;12.074;2023-05-07T05:29:18;3.67;;;3.33;;
33858;SDS011;20156;47.486;12.074;2023-05-07T05:31:44;4.38;;;3.13;;
33858;SDS011;20156;47.486;12.074;2023-05-07T05:34:09;2.90;;;2.63;;
33858;SDS011;20156;47.486;12.074;2023-05-07T05:36:34;5.45;;;3.20;;
33858;SDS011;20156;47.486;12.074;2023-05-07T05:39:00;6.10;;;5.53;;
33858;SDS011;20156;47.486;12.074;2023-05-07T05:41:25;7.53;;;5.97;;
33858;SDS011;20156;47.486;12.074;2023-05-07T05:43:51;7.20;;;5.80;;
33858;SDS011;20156;47.486;12.074;2023-05-07T05:46:16;5.65;;;5.13;;
33858;SDS011;20156;47.486;12.074;2023-05-07T05:48:41;5.22;;;4.63;;
33858;SDS011;20156;47.486;12.074;2023-05-07T05:51:07;7.10;;;4.63;;
33858;SDS011;20156;47.486;12.074;2023-05-07T05:53:32;4.72;;;4.32;;
33858;SDS011;20156;47.486;12.074;2023-05-07T05:55:57;5.25;;;3.90;;
33858;SDS011;20156;47.486;12.074;2023-05-07T05:58:24;5.90;;;4.63;;
33858;SDS011;20156;47.486;12.074;2023-05-07T06:00:49;4.53;;;4.13;;
33858;SDS011;20156;47.486;12.074;2023-05-07T06:03:17;4.95;;;4.35;;
33858;SDS011;20156;47.486;12.074;2023-05-07T06:05:42;3.78;;;3.47;;
33858;SDS011;20156;47.486;12.074;2023-05-07T06:08:08;7.13;;;3.83;;
33858;SDS011;20156;47.486;12.074;2023-05-07T06:10:33;4.00;;;3.67;;
33858;SDS011;20156;47.486;12.074;2023-05-07T06:13:01;4.00;;;3.60;;
33858;SDS011;20156;47.486;12.074;2023-05-07T06:15:26;6.50;;;3.97;;
33858;SDS011;20156;47.486;12.074;2023-05-07T06:17:52;6.63;;;3.88;;
33858;SDS011;20156;47.486;12.074;2023-05-07T06:20:17;4.85;;;4.45;;
33858;SDS011;20156;47.486;12.074;2023-05-07T06:22:42;5.65;;;5.15;;
33858;SDS011;20156;47.486;12.074;2023-05-07T06:25:08;9.10;;;5.75;;
33858;SDS011;20156;47.486;12.074;2023-05-07T06:27:33;9.80;;;6.35;;
33858;SDS011;20156;47.486;12.074;2023-05-07T06:29:59;9.32;;;7.00;;
33858;SDS011;20156;47.486;12.074;2023-05-07T06:32:25;14.10;;;8.45;;
33858;SDS011;20156;47.486;12.074;2023-05-07T06:34:50;9.90;;;7.07;;
33858;SDS011;20156;47.486;12.074;2023-05-07T06:37:16;7.30;;;6.35;;
33858;SDS011;20156;47.486;12.074;2023-05-07T06:39:41;9.63;;;5.97;;
33858;SDS011;20156;47.486;12.074;2023-05-07T06:42:06;7.93;;;7.13;;
33858;SDS011;20156;47.486;12.074;2023-05-07T06:44:32;13.23;;;8.07;;
33858;SDS011;20156;47.486;12.074;2023-05-07T06:46:57;10.20;;;6.60;;
33858;SDS011;20156;47.486;12.074;2023-05-07T06:49:22;8.05;;;7.15;;
33858;SDS011;20156;47.486;12.074;2023-05-07T06:51:48;11.23;;;7.55;;
33858;SDS011;20156;47.486;12.074;2023-05-07T06:54:13;10.15;;;8.95;;
33858;SDS011;20156;47.486;12.074;2023-05-07T06:56:39;12.15;;;9.07;;
33858;SDS011;20156;47.486;12.074;2023-05-07T06:59:06;11.00;;;8.32;;
33858;SDS011;20156;47.486;12.074;2023-05-07T07:01:31;10.07;;;9.07;;
33858;SDS011;20156;47.486;12.074;2023-05-07T07:03:57;9.35;;;8.45;;
33858;SDS011;20156;47.486;12.074;2023-05-07T07:06:22;9.15;;;6.78;;
33858;SDS011;20156;47.486;12.074;2023-05-07T07:08:48;8.13;;;7.00;;
33858;SDS011;20156;47.486;12.074;2023-05-07T07:11:13;7.63;;;6.82;;
33858;SDS011;20156;47.486;12.074;2023-05-07T07:13:40;11.32;;;8.45;;
33858;SDS011;20156;47.486;12.074;2023-05-07T07:16:06;8.85;;;7.70;;
33858;SDS011;20156;47.486;12.074;2023-05-07T07:18:31;8.45;;;7.55;;
33858;SDS011;20156;47.486;12.074;2023-05-07T07:20:57;6.30;;;5.72;;
33858;SDS011;20156;47.486;12.074;2023-05-07T07:23:22;5.20;;;4.80;;
33858;SDS011;20156;47.486;12.074;2023-05-07T07:25:48;7.40;;;4.68;;
33858;SDS011;20156;47.486;12.074;2023-05-07T07:28:13;4.60;;;4.18;;
33858;SDS011;20156;47.486;12.074;2023-05-07T07:30:39;4.75;;;3.78;;
33858;SDS011;20156;47.486;12.074;2023-05-07T07:33:04;3.92;;;3.60;;
33858;SDS011;20156;47.486;12.074;2023-05-07T07:35:30;6.47;;;4.50;;
33858;SDS011;20156;47.486;12.074;2023-05-07T07:37:56;5.10;;;4.45;;
33858;SDS011;20156;47.486;12.074;2023-05-07T07:40:22;6.60;;;4.45;;
33858;SDS011;20156;47.486;12.074;2023-05-07T07:42:47;4.90;;;4.05;;
33858;SDS011;20156;47.486;12.074;2023-05-07T07:45:13;5.20;;;4.45;;
33858;SDS011;20156;47.486;12.074;2023-05-07T07:47:39;4.93;;;4.40;;
33858;SDS011;20156;47.486;12.074;2023-05-07T07:50:05;4.63;;;4.22;;
33858;SDS011;20156;47.486;12.074;2023-05-07T07:52:31;6.75;;;4.40;;
33858;SDS011;20156;47.486;12.074;2023-05-07T07:54:56;4.72;;;4.32;;
33858;SDS011;20156;47.486;12.074;2023-05-07T07:57:21;8.82;;;7.93;;
33858;SDS011;20156;47.486;12.074;2023-05-07T07:59:47;5.05;;;4.57;;
33858;SDS011;20156;47.486;12.074;2023-05-07T08:02:12;4.97;;;4.20;;
33858;SDS011;20156;47.486;12.074;2023-05-07T08:04:37;4.13;;;3.83;;
33858;SDS011;20156;47.486;12.074;2023-05-07T08:07:03;4.93;;;4.13;;
33858;SDS011;20156;47.486;12.074;2023-05-07T08:09:29;5.28;;;4.25;;
33858;SDS011;20156;47.486;12.074;2023-05-07T08:11:54;4.18;;;3.85;;
33858;SDS011;20156;47.486;12.074;2023-05-07T08:14:19;5.53;;;4.15;;
33858;SDS011;20156;47.486;12.074;2023-05-07T08:16:45;4.93;;;4.15;;
33858;SDS011;20156;47.486;12.074;2023-05-07T08:19:10;5.32;;;4.38;;
33858;SDS011;20156;47.486;12.074;2023-05-07T08:21:38;4.50;;;3.78;;
33858;SDS011;20156;47.486;12.074;2023-05-07T08:24:04;3.85;;;3.30;;
33858;SDS011;20156;47.486;12.074;2023-05-07T08:26:30;4.43;;;3.72;;
33858;SDS011;20156;47.486;12.074;2023-05-07T08:28:55;3.65;;;3.20;;
33858;SDS011;20156;47.486;12.074;2023-05-07T08:31:21;3.75;;;3.38;;
33858;SDS011;20156;47.486;12.074;2023-05-07T08:33:46;4.25;;;3.30;;
33858;SDS011;20156;47.486;12.074;2023-05-07T08:36:12;5.03;;;3.25;;
33858;SDS011;20156;47.486;12.074;2023-05-07T08:38:37;6.28;;;3.90;;
33858;SDS011;20156;47.486;12.074;2023-05-07T08:41:05;5.40;;;3.70;;
33858;SDS011;20156;47.486;12.074;2023-05-07T08:43:32;3.53;;;3.22;;
33858;SDS011;20156;47.486;12.074;2023-05-07T08:46:00;3.63;;;3.10;;
33858;SDS011;20156;47.486;12.074;2023-05-07T08:48:27;3.78;;;3.30;;
33858;SDS011;20156;47.486;12.074;2023-05-07T08:50:55;3.00;;;2.70;;
33858;SDS011;20156;47.486;12.074;2023-05-07T08:53:23;4.32;;;3.40;;
33858;SDS011;20156;47.486;12.074;2023-05-07T08:55:48;4.38;;;3.78;;
33858;SDS011;20156;47.486;12.074;2023-05-07T08:58:14;5.45;;;4.47;;
33858;SDS011;20156;47.486;12.074;2023-05-07T09:00:39;4.15;;;3.70;;
33858;SDS011;20156;47.486;12.074;2023-05-07T09:03:05;5.82;;;3.55;;
33858;SDS011;20156;47.486;12.074;2023-05-07T09:05:30;3.70;;;3.17;;
33858;SDS011;20156;47.486;12.074;2023-05-07T09:07:58;3.50;;;3.20;;
33858;SDS011;20156;47.486;12.074;2023-05-07T09:10:25;3.70;;;3.40;;
33858;SDS011;20156;47.486;12.074;2023-05-07T09:12:51;3.78;;;3.30;;
33858;SDS011;20156;47.486;12.074;2023-05-07T09:15:18;5.13;;;3.35;;
33858;SDS011;20156;47.486;12.074;2023-05-07T09:17:43;4.50;;;3.30;;
33858;SDS011;20156;47.486;12.074;2023-05-07T09:20:09;4.03;;;3.03;;
33858;SDS011;20156;47.486;12.074;2023-05-07T09:22:38;3.60;;;3.30;;
33858;SDS011;20156;47.486;12.074;2023-05-07T09:25:04;3.42;;;3.13;;
33858;SDS011;20156;47.486;12.074;2023-05-07T09:27:33;3.22;;;2.92;;
33858;SDS011;20156;47.486;12.074;2023-05-07T09:29:58;3.40;;;3.10;;
33858;SDS011;20156;47.486;12.074;2023-05-07T09:32:24;4.72;;;3.30;;
33858;SDS011;20156;47.486;12.074;2023-05-07T09:34:50;4.68;;;3.20;;
33858;SDS011;20156;47.486;12.074;2023-05-07T09:37:15;5.38;;;3.35;;
33858;SDS011;20156;47.486;12.074;2023-05-07T09:39:44;3.30;;;2.80;;
33858;SDS011;20156;47.486;12.074;2023-05-07T09:42:11;3.78;;;3.15;;
33858;SDS011;20156;47.486;12.074;2023-05-07T09:44:37;3.10;;;2.80;;
33858;SDS011;20156;47.486;12.074;2023-05-07T09:47:06;5.05;;;3.78;;
33858;SDS011;20156;47.486;12.074;2023-05-07T09:49:33;3.42;;;3.13;;
33858;SDS011;20156;47.486;12.074;2023-05-07T09:52:01;3.67;;;3.03;;
33858;SDS011;20156;47.486;12.074;2023-05-07T09:54:28;3.17;;;2.88;;
33858;SDS011;20156;47.486;12.074;2023-05-07T09:56:55;3.13;;;2.83;;
33858;SDS011;20156;47.486;12.074;2023-05-07T09:59:22;3.40;;;3.10;;
33858;SDS011;20156;47.486;12.074;2023-05-07T10:01:47;3.47;;;2.90;;
33858;SDS011;20156;47.486;12.074;2023-05-07T10:04:15;4.90;;;3.08;;
33858;SDS011;20156;47.486;12.074;2023-05-07T10:06:42;3.38;;;3.08;;
33858;SDS011;20156;47.486;12.074;2023-05-07T10:09:09;3.40;;;2.80;;
33858;SDS011;20156;47.486;12.074;2023-05-07T10:11:35;2.88;;;2.67;;
33858;SDS011;20156;47.486;12.074;2023-05-07T10:14:01;2.85;;;2.60;;
33858;SDS011;20156;47.486;12.074;2023-05-07T10:16:28;3.05;;;2.75;;
33858;SDS011;20156;47.486;12.074;2023-05-07T10:18:57;3.28;;;2.88;;
33858;SDS011;20156;47.486;12.074;2023-05-07T10:21:23;3.30;;;3.00;;
33858;SDS011;20156;47.486;12.074;2023-05-07T10:23:59;3.00;;;2.42;;
33858;SDS011;20156;47.486;12.074;2023-05-07T10:26:30;2.88;;;2.30;;
33858;SDS011;20156;47.486;12.074;2023-05-07T10:29:04;2.28;;;1.95;;
33858;SDS011;20156;47.486;12.074;2023-05-07T10:34:21;2.47;;;1.90;;
33858;SDS011;20156;47.486;12.074;2023-05-07T10:36:51;2.08;;;1.88;;
33858;SDS011;20156;47.486;12.074;2023-05-07T10:39:17;2.10;;;1.90;;
33858;SDS011;20156;47.486;12.074;2023-05-07T10:41:42;2.80;;;2.25;;
33858;SDS011;20156;47.486;12.074;2023-05-07T10:44:08;2.40;;;2.03;;
33858;SDS011;20156;47.486;12.074;2023-05-07T10:46:33;3.10;;;2.20;;
33858;SDS011;20156;47.486;12.074;2023-05-07T10:51:26;2.33;;;2.13;;
33858;SDS011;20156;47.486;12.074;2023-05-07T10:56:36;2.13;;;1.98;;
33858;SDS011;20156;47.486;12.074;2023-05-07T11:04:23;1.83;;;1.50;;
33858;SDS011;20156;47.486;12.074;2023-05-07T11:15:05;2.97;;;1.70;;
33858;SDS011;20156;47.486;12.074;2023-05-07T11:17:31;2.40;;;1.80;;
33858;SDS011;20156;47.486;12.074;2023-05-07T11:19:59;3.30;;;1.80;;
33858;SDS011;20156;47.486;12.074;2023-05-07T11:25:01;3.60;;;2.10;;
33858;SDS011;20156;47.486;12.074;2023-05-07T11:27:28;2.13;;;2.03;;
33858;SDS011;20156;47.486;12.074;2023-05-07T11:29:54;2.53;;;1.70;;
33858;SDS011;20156;47.486;12.074;2023-05-07T11:32:27;3.22;;;2.10;;
33858;SDS011;20156;47.486;12.074;2023-05-07T11:34:54;1.83;;;1.60;;
33858;SDS011;20156;47.486;12.074;2023-05-07T11:37:20;1.65;;;1.55;;
33858;SDS011;20156;47.486;12.074;2023-05-07T11:39:47;2.28;;;1.60;;
33858;SDS011;20156;47.486;12.074;2023-05-07T11:42:28;2.28;;;1.70;;
33858;SDS011;20156;47.486;12.074;2023-05-07T11:44:54;3.55;;;1.70;;
33858;SDS011;20156;47.486;12.074;2023-05-07T11:47:20;1.73;;;1.63;;
33858;SDS011;20156;47.486;12.074;2023-05-07T11:49:47;2.40;;;2.03;;
33858;SDS011;20156;47.486;12.074;2023-05-07T11:52:13;1.92;;;1.73;;
33858;SDS011;20156;47.486;12.074;2023-05-07T11:54:39;2.00;;;1.77;;
33858;SDS011;20156;47.486;12.074;2023-05-07T11:57:05;1.92;;;1.77;;
33858;SDS011;20156;47.486;12.074;2023-05-07T11:59:41;2.47;;;1.88;;
33858;SDS011;20156;47.486;12.074;2023-05-07T12:02:07;2.83;;;1.70;;
33858;SDS011;20156;47.486;12.074;2023-05-07T12:04:33;2.83;;;1.70;;
33858;SDS011;20156;47.486;12.074;2023-05-07T12:06:58;2.28;;;2.00;;
33858;SDS011;20156;47.486;12.074;2023-05-07T12:09:24;2.05;;;1.85;;
33858;SDS011;20156;47.486;12.074;2023-05-07T12:11:49;2.00;;;1.70;;
33858;SDS011;20156;47.486;12.074;2023-05-07T12:14:16;1.70;;;1.60;;
33858;SDS011;20156;47.486;12.074;2023-05-07T12:16:42;3.45;;;1.42;;
33858;SDS011;20156;47.486;12.074;2023-05-07T12:19:08;2.05;;;1.50;;
33858;SDS011;20156;47.486;12.074;2023-05-07T12:21:37;2.38;;;1.55;;
33858;SDS011;20156;47.486;12.074;2023-05-07T12:24:03;2.33;;;1.77;;
33858;SDS011;20156;47.486;12.074;2023-05-07T12:26:29;3.38;;;1.60;;
33858;SDS011;20156;47.486;12.074;2023-05-07T12:28:54;2.42;;;1.90;;
33858;SDS011;20156;47.486;12.074;2023-05-07T12:31:20;2.20;;;2.03;;
33858;SDS011;20156;47.486;12.074;2023-05-07T12:33:45;3.58;;;2.22;;
33858;SDS011;20156;47.486;12.074;2023-05-07T12:36:12;3.58;;;2.42;;
33858;SDS011;20156;47.486;12.074;2023-05-07T12:38:38;2.83;;;2.30;;
33858;SDS011;20156;47.486;12.074;2023-05-07T12:41:06;2.20;;;1.77;;
33858;SDS011;20156;47.486;12.074;2023-05-07T12:43:32;4.07;;;2.30;;
33858;SDS011;20156;47.486;12.074;2023-05-07T12:46:03;5.25;;;2.30;;
33858;SDS011;20156;47.486;12.074;2023-05-07T12:48:30;4.25;;;2.00;;
33858;SDS011;20156;47.486;12.074;2023-05-07T12:50:57;3.75;;;2.10;;
33858;SDS011;20156;47.486;12.074;2023-05-07T12:53:25;3.05;;;2.03;;
33858;SDS011;20156;47.486;12.074;2023-05-07T12:55:53;2.97;;;2.30;;
33858;SDS011;20156;47.486;12.074;2023-05-07T12:58:22;2.05;;;1.92;;
33858;SDS011;20156;47.486;12.074;2023-05-07T13:00:51;3.00;;;2.30;;
33858;SDS011;20156;47.486;12.074;2023-05-07T13:05:59;3.38;;;1.70;;
33858;SDS011;20156;47.486;12.074;2023-05-07T13:08:36;3.15;;;1.80;;
33858;SDS011;20156;47.486;12.074;2023-05-07T13:11:06;3.33;;;1.80;;
33858;SDS011;20156;47.486;12.074;2023-05-07T13:13:33;1.63;;;1.33;;
33858;SDS011;20156;47.486;12.074;2023-05-07T13:16:00;2.65;;;1.45;;
33858;SDS011;20156;47.486;12.074;2023-05-07T13:18:26;3.17;;;1.60;;
33858;SDS011;20156;47.486;12.074;2023-05-07T13:20:52;2.85;;;1.52;;
33858;SDS011;20156;47.486;12.074;2023-05-07T13:23:18;1.73;;;1.52;;
33858;SDS011;20156;47.486;12.074;2023-05-07T13:25:44;3.58;;;1.80;;
33858;SDS011;20156;47.486;12.074;2023-05-07T13:28:10;3.92;;;1.70;;
33858;SDS011;20156;47.486;12.074;2023-05-07T13:30:35;2.63;;;2.10;;
33858;SDS011;20156;47.486;12.074;2023-05-07T13:33:01;1.80;;;1.52;;
33858;SDS011;20156;47.486;12.074;2023-05-07T13:35:27;1.38;;;1.27;;
33858;SDS011;20156;47.486;12.074;2023-05-07T13:37:52;1.38;;;1.27;;
33858;SDS011;20156;47.486;12.074;2023-05-07T13:40:19;2.55;;;1.63;;
33858;SDS011;20156;47.486;12.074;2023-05-07T13:42:45;3.17;;;1.70;;
33858;SDS011;20156;47.486;12.074;2023-05-07T13:45:11;2.80;;;2.50;;
33858;SDS011;20156;47.486;12.074;2023-05-07T13:47:39;1.63;;;1.42;;
33858;SDS011;20156;47.486;12.074;2023-05-07T13:50:06;1.48;;;1.38;;
33858;SDS011;20156;47.486;12.074;2023-05-07T13:52:32;1.17;;;1.08;;
33858;SDS011;20156;47.486;12.074;2023-05-07T13:54:57;1.30;;;1.20;;
33858;SDS011;20156;47.486;12.074;2023-05-07T13:57:23;1.50;;;1.27;;
33858;SDS011;20156;47.486;12.074;2023-05-07T13:59:49;1.38;;;1.27;;
33858;SDS011;20156;47.486;12.074;2023-05-07T14:02:14;2.88;;;1.38;;
33858;SDS011;20156;47.486;12.074;2023-05-07T14:04:40;1.42;;;1.33;;
33858;SDS011;20156;47.486;12.074;2023-05-07T14:07:05;1.15;;;1.00;;
33858;SDS011;20156;47.486;12.074;2023-05-07T14:09:30;1.05;;;0.90;;
33858;SDS011;20156;47.486;12.074;2023-05-07T14:11:56;1.10;;;1.10;;
33858;SDS011;20156;47.486;12.074;2023-05-07T14:14:21;0.80;;;0.75;;
33858;SDS011;20156;47.486;12.074;2023-05-07T14:16:47;1.20;;;1.17;;
33858;SDS011;20156;47.486;12.074;2023-05-07T14:19:12;1.50;;;1.40;;
33858;SDS011;20156;47.486;12.074;2023-05-07T14:21:37;1.77;;;1.13;;
33858;SDS011;20156;47.486;12.074;2023-05-07T14:24:03;1.30;;;1.20;;
33858;SDS011;20156;47.486;12.074;2023-05-07T14:26:30;2.97;;;1.40;;
33858;SDS011;20156;47.486;12.074;2023-05-07T14:28:56;1.70;;;1.42;;
33858;SDS011;20156;47.486;12.074;2023-05-07T14:31:23;1.20;;;1.10;;
33858;SDS011;20156;47.486;12.074;2023-05-07T14:33:49;1.38;;;1.27;;
33858;SDS011;20156;47.486;12.074;2023-05-07T14:36:15;1.50;;;1.30;;
33858;SDS011;20156;47.486;12.074;2023-05-07T14:38:48;1.25;;;0.95;;
33858;SDS011;20156;47.486;12.074;2023-05-07T14:41:13;0.88;;;0.88;;
33858;SDS011;20156;47.486;12.074;2023-05-07T14:43:39;1.60;;;0.90;;
33858;SDS011;20156;47.486;12.074;2023-05-07T14:46:05;2.17;;;0.98;;
33858;SDS011;20156;47.486;12.074;2023-05-07T14:48:30;1.20;;;1.10;;
33858;SDS011;20156;47.486;12.074;2023-05-07T14:50:56;2.42;;;1.63;;
33858;SDS011;20156;47.486;12.074;2023-05-07T14:53:21;1.10;;;0.98;;